Logo AVAMET
Benvolgut visitant, si us plau, ingressa Recuperar contrasenya

Fontanars poble

Dades diàries. Acumulats / Últims 30 dies disponibles

Data Temperatura (°C) Humitat rel. (%) Pressió rel. (hPa) Vent (km/h) Precipi-
tació (mm)
Mínima Mitjana Màxima Mínima Mitjana Màxima Mínima Mitjana Màxima Predom. Mitjana Ràfega
màxima
Mínima Mitjana Màxima Mínima Mitjana Màxima
Dades mensuals acumulades fins l'últim dia disponible
09/2017 10,5 14,2 19,1 19,9 19,1 26,7 31,9   4,5 41,8 3,0
Dades anuals acumulades fins l'últim dia disponible
2017 -5,9 10,5 21,3 16,2 1,4 22,7 40,9   5,6 82,1 273,2
Últims 30 dies disponibles
24-09-2017 12,4     20,4     29,3 W 3,7 30,6 0,0
23-09-2017 13,6     18,2     24,3 ENE 2,6 20,9 0,0
22-09-2017 14,6     18,2     22,9 E 4,8 32,2 0,0
21-09-2017 11,8     19,1     28,6 ESE 1,9 24,1 0,2
20-09-2017 12,8     19,1     26,4 S 2,7 29,0 0,0
19-09-2017 12,9     18,8     25,9 WNW 2,9 24,1 0,0
18-09-2017 11,8     19,1     25,9 W 7,2 41,8 0,0
17-09-2017 10,6     17,4     25,1 S 3,9 35,4 0,0
16-09-2017 10,5     14,2     20,3 E 3,4 29,0 0,0
15-09-2017 11,4     15,9     19,1 NE 9,0 37,0 2,2
14-09-2017 14,4     23,0     31,9 W 6,4 33,8 0,0
13-09-2017 12,6     20,4     28,8 S 3,1 27,4 0,0
11-09-2017 13,9     22,8     30,6 WNW 5,3 38,6 0,0
10-09-2017 12,4     17,9     23,9 NW 7,7 37,0 0,0
09-09-2017 15,4     20,7     26,1 W 7,2 38,6 0,0
08-09-2017 17,3     22,5     29,6 S 3,9 33,8 0,0
07-09-2017 19,1     22,1     27,6 ESE 3,4 22,5 0,0
06-09-2017 15,6     21,8     28,0 ENE 4,0 30,6 0,0
05-09-2017 17,7     22,9     30,3 E 2,6 25,7 0,2
04-09-2017 17,2     22,6     30,3 WSW 4,8 30,6 0,0
03-09-2017 15,2     21,6     29,6 W 4,7 27,4 0,2
02-09-2017 16,4     20,8     28,2 E 3,1 20,9 0,2
01-09-2017 17,2     19,3     21,9 E 6,0 27,4 0,0
31-08-2017 16,3     19,8     24,3 E 3,5 24,1 1,6
30-08-2017 15,2     18,3     22,8 W 4,8 30,6 8,4
29-08-2017 16,2     18,6     21,7 E 2,4 29,0 16,8
28-08-2017 18,1     22,7     27,6 S 3,4 29,0 0,0
27-08-2017 17,9     22,6     27,3 E 4,2 25,7 0,0
26-08-2017 19,2     24,0     30,8 E 5,0 27,4 0,0
25-08-2017 17,3     23,7     32,1 E 3,7 25,7 0,0
Últims 13 mesos disponibles
08/2017 13,0 17,7 20,9 23,5 21,7 30,3 37,3 4,2 48,3 37,2
07/2017 11,3 17,7 20,4 24,1 22,4 32,1 40,9 4,2 41,8 21,8
06/2017 9,7 15,9 21,3 23,0 21,3 30,6 38,1 4,1 66,0 13,6
05/2017 5,9 10,5 12,8 17,4 16,7 24,5 32,4 4,8 53,1 1,8
04/2017 2,6 6,9 13,3 13,0 8,1 19,7 27,6 5,2 51,5 12,8
03/2017 0,9 5,7 11,0 11,5 7,8 18,0 27,7 7,6 69,2 90,8
02/2017 -1,2 4,9 9,1 8,7 9,1 13,4 18,6 8,1 82,1 11,4
01/2017 -5,9 1,8 8,1 5,8 1,4 10,4 17,8 6,8 72,4 80,8
12/2016 0,7 4,8 10,5 7,9 7,3 11,9 18,1 4,7 57,9 256,4
11/2016 1,5 6,2 13,7 10,4 9,4 15,1 24,4 4,4 57,9 50,0
10/2016 6,5 12,6 16,1 16,9 14,7 22,8 29,6 3,1 43,5 35,6
09/2016 9,5 14,4 20,7 20,6 19,3 28,1 38,3 3,8 56,3 20,2
08/2016 12,5 16,7 20,9 23,3 21,8 30,6 37,2 3,9 38,6 12,8
Tots els anys disponibles
2016 -3,3 9,7 26,1 15,1 6,8 21,2 38,4 5,8 85,3 512,8
2015 -4,7 10,0 21,9 15,4 4,6 21,8 40,3 5,3 91,7 332,4
2014 -3,3 10,1 20,9 15,4 5,2 21,6 36,9 6,6 85,3 328,0
2013 -3,7 9,0 12,7 14,3 16,1 20,4 36,8 6,8 90,1 417,0
2012 -7,9 9,2 15,6 14,9 18,0 21,5 41,8 5,7 77,2 467,0
2011 -6,5 10,0 20,1 15,0 1,7 21,1 37,8 5,3 80,5 400,8
2010 -5,7 9,2 22,4 14,0 -1,2 19,7 38,9 6,8 88,5 495,2
Nota sobre les dades: s'avisa a l'usuari de la provisionalitat i no oficialitat d'aquestes dades
Logo AVAMET blanc
Llicència de Creative CommonsLa web d'AVAMET i els seus continguts estan subjectes a una llicència de
Reconeixement - No Comercial - Compartir igual